Time;durP1;ratioP1;P1;durP2;ratioP2;P2;SDS_P1;SDS_P2;PMS_P1;PMS_P2;Temp;Humidity;BMP_temperature;BMP_pressure;BME280_temperature;BME280_humidity;BME280_pressure;Samples;Min_cycle;Max_cycle;Signal;HPM_P1;HPM_P2
2023/05/10 00:00:43;;;;;;;18.83;12.00;;;12.70;99.90;;;;;;5046248;28;20060;-75
2023/05/10 00:03:09;;;;;;;17.45;11.55;;;12.70;99.90;;;;;;5011366;28;207132;-75
2023/05/10 00:05:35;;;;;;;20.02;11.90;;;12.60;99.90;;;;;;5043702;28;20071;-74
2023/05/10 00:08:01;;;;;;;18.90;12.18;;;12.70;99.90;;;;;;5020321;28;212826;-73
2023/05/10 00:10:27;;;;;;;17.80;11.95;;;12.70;99.90;;;;;;5052295;28;20171;-75
2023/05/10 00:12:53;;;;;;;17.70;11.68;;;12.70;99.90;;;;;;5072546;28;20067;-73
2023/05/10 00:15:19;;;;;;;17.25;11.98;;;12.70;99.90;;;;;;4992144;28;209637;-76
2023/05/10 00:17:45;;;;;;;18.92;11.95;;;12.70;99.90;;;;;;5048244;28;20048;-73
2023/05/10 00:20:12;;;;;;;17.65;11.75;;;12.70;99.90;;;;;;4998813;28;230567;-74
2023/05/10 00:22:38;;;;;;;18.33;11.25;;;12.70;99.90;;;;;;5053078;28;20045;-74
2023/05/10 00:25:04;;;;;;;17.20;11.30;;;12.70;99.90;;;;;;5018456;28;209023;-73
2023/05/10 00:27:30;;;;;;;17.45;11.07;;;12.60;99.90;;;;;;5072696;28;20052;-73
2023/05/10 00:29:57;;;;;;;17.98;11.90;;;12.70;99.90;;;;;;4987842;28;205129;-74
2023/05/10 00:32:23;;;;;;;19.00;11.55;;;12.70;99.90;;;;;;5056918;28;20059;-74
2023/05/10 00:34:49;;;;;;;16.10;11.00;;;12.70;99.90;;;;;;5005505;28;206071;-74
2023/05/10 00:37:16;;;;;;;19.02;11.80;;;12.60;99.90;;;;;;5064202;28;20898;-74
2023/05/10 00:39:42;;;;;;;17.35;11.40;;;12.70;99.90;;;;;;4994161;28;149928;-73
2023/05/10 00:42:08;;;;;;;16.77;10.52;;;12.70;99.90;;;;;;5051086;28;20057;-73
2023/05/10 00:44:34;;;;;;;17.17;11.07;;;12.70;99.90;;;;;;5004564;28;214692;-74
2023/05/10 00:47:00;;;;;;;17.70;11.25;;;12.70;99.90;;;;;;5073679;28;20070;-74
2023/05/10 00:49:27;;;;;;;16.67;11.27;;;12.60;99.90;;;;;;5012237;28;206271;-75
2023/05/10 00:51:53;;;;;;;17.13;10.82;;;12.70;99.90;;;;;;5072547;28;20052;-75
2023/05/10 00:54:19;;;;;;;18.63;11.48;;;12.70;99.90;;;;;;5003470;28;217833;-74
2023/05/10 00:56:48;;;;;;;16.67;11.10;;;12.70;99.90;;;;;;5072548;28;20044;-73
2023/05/10 00:59:16;;;;;;;17.33;10.30;;;12.70;99.90;;;;;;4989405;28;206356;-74
2023/05/10 01:01:46;;;;;;;19.42;11.98;;;12.60;99.90;;;;;;5070027;28;21601;-73
2023/05/10 01:04:13;;;;;;;21.70;11.90;;;12.70;99.90;;;;;;5007115;28;217513;-73
2023/05/10 01:06:42;;;;;;;19.38;11.00;;;12.60;99.90;;;;;;5066004;28;20068;-73
2023/05/10 01:09:09;;;;;;;20.35;11.90;;;12.60;99.90;;;;;;5013277;28;206438;-74
2023/05/10 01:11:38;;;;;;;20.60;11.43;;;12.60;99.90;;;;;;5072769;28;20048;-74
2023/05/10 01:14:05;;;;;;;19.48;11.82;;;12.60;99.90;;;;;;5016495;28;207696;-74
2023/05/10 01:16:37;;;;;;;21.50;11.73;;;12.60;99.90;;;;;;5065646;28;20052;-73
2023/05/10 01:19:04;;;;;;;;;;;12.60;99.90;;;;;;5012039;28;207242;-73
2023/05/10 01:21:38;;;;;;;24.15;12.45;;;12.50;99.90;;;;;;5071629;28;19916;-73
2023/05/10 01:24:30;;;;;;;21.25;12.40;;;12.50;99.90;;;;;;5010616;28;211145;-73
2023/05/10 01:26:59;;;;;;;;;;;12.50;99.90;;;;;;5077651;28;20056;-74
2023/05/10 01:29:54;;;;;;;22.85;12.95;;;12.50;99.90;;;;;;5032637;28;193420;-74
2023/05/10 01:32:29;;;;;;;22.23;13.48;;;12.50;99.90;;;;;;5080628;28;20057;-74
2023/05/10 01:35:23;;;;;;;24.63;15.02;;;12.50;99.90;;;;;;5005579;28;222836;-73
2023/05/10 01:37:59;;;;;;;28.75;15.07;;;12.50;99.90;;;;;;5061883;28;20052;-74
2023/05/10 01:40:29;;;;;;;25.85;14.90;;;12.50;99.90;;;;;;5018299;28;206446;-74
2023/05/10 01:43:02;;;;;;;23.00;14.60;;;12.50;99.90;;;;;;5056540;28;210214;-73
2023/05/10 01:45:31;;;;;;;25.10;15.30;;;12.50;99.90;;;;;;5027526;28;20104;-73
2023/05/10 01:48:09;;;;;;;24.13;14.98;;;12.50;99.90;;;;;;5057431;28;207095;-73
2023/05/10 01:50:38;;;;;;;23.58;13.98;;;12.50;99.90;;;;;;5033945;28;20044;-74
2023/05/10 01:53:08;;;;;;;23.42;14.27;;;12.50;99.90;;;;;;4999447;28;214579;-76
2023/05/10 01:55:52;;;;;;;24.60;14.65;;;12.50;99.90;;;;;;5051107;28;20060;-74
2023/05/10 01:58:30;;;;;;;22.52;14.27;;;12.50;99.90;;;;;;5017876;27;205768;-74
2023/05/10 02:01:00;;;;;;;21.15;12.63;;;12.50;99.90;;;;;;5059347;28;20064;-73
2023/05/10 02:03:27;;;;;;;22.83;14.60;;;12.40;99.90;;;;;;4995582;28;208693;-73
2023/05/10 02:05:55;;;;;;;25.08;14.50;;;12.40;99.90;;;;;;5048386;28;20202;-74
2023/05/10 02:08:22;;;;;;;26.98;14.60;;;12.40;99.90;;;;;;5002049;28;206814;-75
2023/05/10 02:10:51;;;;;;;24.60;15.07;;;12.40;99.90;;;;;;5031426;28;20044;-75
2023/05/10 02:13:19;;;;;;;21.73;13.95;;;12.50;99.90;;;;;;4997337;28;210426;-74
2023/05/10 02:15:48;;;;;;;23.90;14.40;;;12.40;99.90;;;;;;5048727;28;20049;-75
2023/05/10 02:18:16;;;;;;;24.38;14.60;;;12.40;99.90;;;;;;5005135;28;206122;-74
2023/05/10 02:20:45;;;;;;;23.95;14.13;;;12.40;99.90;;;;;;5063350;28;20039;-74
2023/05/10 02:23:12;;;;;;;27.42;15.85;;;12.50;99.90;;;;;;4998427;28;215152;-77
2023/05/10 02:25:39;;;;;;;28.15;15.75;;;12.40;99.90;;;;;;5047928;28;20048;-76
2023/05/10 02:28:07;;;;;;;23.45;14.82;;;12.40;99.90;;;;;;4998028;28;209796;-77
2023/05/10 02:30:34;;;;;;;26.90;16.30;;;12.50;99.90;;;;;;5064016;28;21862;-75
2023/05/10 02:33:03;;;;;;;25.02;15.10;;;12.50;99.90;;;;;;5024532;28;206743;-75
2023/05/10 02:35:30;;;;;;;25.30;15.38;;;12.40;99.90;;;;;;5019184;28;20044;-75
2023/05/10 02:37:58;;;;;;;27.88;16.00;;;12.40;99.90;;;;;;5062423;28;207542;-72
2023/05/10 02:40:27;;;;;;;29.30;17.67;;;12.40;99.90;;;;;;5045453;28;204927;-75
2023/05/10 02:42:56;;;;;;;29.70;17.45;;;12.40;99.90;;;;;;5078893;28;20059;-75
2023/05/10 02:45:27;;;;;;;32.00;17.67;;;12.40;99.90;;;;;;5002710;28;134027;-74
2023/05/10 02:47:54;;;;;;;30.58;16.65;;;12.40;99.90;;;;;;5073495;28;203594;-72
2023/05/10 02:50:22;;;;;;;30.10;17.38;;;12.40;99.90;;;;;;5019922;28;203410;-74
2023/05/10 02:52:51;;;;;;;30.40;17.60;;;12.40;99.90;;;;;;5078564;28;20048;-74
2023/05/10 02:55:22;;;;;;;30.30;17.42;;;12.30;99.90;;;;;;4996816;28;208117;-75
2023/05/10 02:57:59;;;;;;;30.83;17.70;;;12.30;99.90;;;;;;5078005;28;20056;-75
2023/05/10 03:00:25;;;;;;;28.98;16.83;;;12.30;99.90;;;;;;4990277;28;20039;-74
2023/05/10 03:02:52;;;;;;;26.65;16.85;;;12.30;99.90;;;;;;5075634;28;20044;-74
2023/05/10 03:05:18;;;;;;;25.98;16.33;;;12.40;99.90;;;;;;4998054;28;208251;-74
2023/05/10 03:07:46;;;;;;;28.00;16.70;;;12.40;99.90;;;;;;5079514;28;20071;-74
2023/05/10 03:10:12;;;;;;;29.40;17.35;;;12.40;99.90;;;;;;4996960;28;123464;-74
2023/05/10 03:13:13;;;;;;;27.90;17.02;;;12.30;99.90;;;;;;5075605;28;20052;-75
2023/05/10 03:15:45;;;;;;;;;;;12.30;99.90;;;;;;5009271;28;20048;-75
2023/05/10 03:18:17;;;;;;;;;;;12.30;99.90;;;;;;5016206;28;208298;-75
2023/05/10 03:20:49;;;;;;;27.73;15.93;;;12.30;99.90;;;;;;5070110;28;20648;-74
2023/05/10 03:23:29;;;;;;;26.80;16.60;;;12.30;99.90;;;;;;5011129;28;211492;-73
2023/05/10 03:25:57;;;;;;;27.20;16.52;;;12.30;99.90;;;;;;5062931;28;20044;-75
2023/05/10 03:28:26;;;;;;;25.77;15.88;;;12.30;99.90;;;;;;5018481;28;205192;-75
2023/05/10 03:30:54;;;;;;;25.70;17.10;;;12.30;99.90;;;;;;5078675;28;20071;-76
2023/05/10 03:33:20;;;;;;;27.23;16.00;;;12.30;99.90;;;;;;5007559;28;159613;-75
2023/05/10 03:35:46;;;;;;;28.38;17.30;;;12.30;99.90;;;;;;5069308;28;20070;-76
2023/05/10 03:38:13;;;;;;;27.00;16.33;;;12.30;99.90;;;;;;5022311;28;209521;-74
2023/05/10 03:40:39;;;;;;;26.13;16.52;;;12.40;99.90;;;;;;5068038;28;20047;-75
2023/05/10 03:43:05;;;;;;;27.42;16.10;;;12.30;99.90;;;;;;5017772;28;217931;-74
2023/05/10 03:45:31;;;;;;;23.50;14.93;;;12.30;99.90;;;;;;5064820;28;20549;-75
2023/05/10 03:47:58;;;;;;;24.20;14.32;;;12.30;99.90;;;;;;5053604;28;211883;-72
2023/05/10 03:50:24;;;;;;;23.48;13.55;;;12.30;99.90;;;;;;5052887;28;209371;-76
2023/05/10 03:52:50;;;;;;;20.42;12.57;;;12.30;99.90;;;;;;5079235;28;20111;-74
2023/05/10 03:55:16;;;;;;;21.20;12.70;;;12.30;99.90;;;;;;5025558;28;204814;-76
2023/05/10 03:57:42;;;;;;;18.02;11.88;;;12.30;99.90;;;;;;5081310;28;20064;-75
2023/05/10 04:00:09;;;;;;;18.30;12.43;;;12.30;99.90;;;;;;4992697;28;207706;-74
2023/05/10 04:02:35;;;;;;;20.17;12.05;;;12.30;99.90;;;;;;5067827;28;20530;-75
2023/05/10 04:05:02;;;;;;;18.98;12.00;;;12.30;99.90;;;;;;5020385;28;203211;-75
2023/05/10 04:07:29;;;;;;;19.95;12.70;;;12.30;99.90;;;;;;5062144;28;20051;-74
2023/05/10 04:09:55;;;;;;;18.52;11.05;;;12.30;99.90;;;;;;5010178;28;207858;-74
2023/05/10 04:12:21;;;;;;;18.55;11.18;;;12.30;99.90;;;;;;5069369;28;20047;-74
2023/05/10 04:14:47;;;;;;;18.30;11.35;;;12.30;99.90;;;;;;5014925;28;218724;-75
2023/05/10 04:17:13;;;;;;;17.20;10.23;;;12.30;99.90;;;;;;5074144;28;20052;-74
2023/05/10 04:19:39;;;;;;;16.88;10.50;;;12.30;99.90;;;;;;5027029;28;207145;-73
2023/05/10 04:22:05;;;;;;;15.85;10.02;;;12.30;99.90;;;;;;5070750;28;20052;-74
2023/05/10 04:24:31;;;;;;;17.17;10.27;;;12.30;99.90;;;;;;5022414;28;222560;-74
2023/05/10 04:26:57;;;;;;;17.77;10.23;;;12.30;99.90;;;;;;5074814;28;20056;-75
2023/05/10 04:29:23;;;;;;;18.08;11.00;;;12.30;99.90;;;;;;5007396;28;213892;-74
2023/05/10 04:31:50;;;;;;;15.55;10.00;;;12.30;99.90;;;;;;5066273;28;20056;-75
2023/05/10 04:34:16;;;;;;;14.48;9.75;;;12.30;99.90;;;;;;5021882;28;211820;-74
2023/05/10 04:36:43;;;;;;;15.32;9.60;;;12.30;99.90;;;;;;5067448;28;20112;-74
2023/05/10 04:39:09;;;;;;;17.50;11.13;;;12.30;99.90;;;;;;5001528;28;210331;-76
2023/05/10 04:41:37;;;;;;;16.23;9.75;;;12.20;99.90;;;;;;5052995;28;20057;-75
2023/05/10 04:44:04;;;;;;;15.13;9.63;;;12.30;99.90;;;;;;4997848;28;212126;-74
2023/05/10 04:46:30;;;;;;;14.52;10.27;;;12.30;99.90;;;;;;5060548;28;20052;-75
2023/05/10 04:48:56;;;;;;;14.23;9.40;;;12.30;99.90;;;;;;4999869;28;212244;-74
2023/05/10 04:51:22;;;;;;;13.60;9.27;;;12.30;99.90;;;;;;5050733;28;20060;-74
2023/05/10 04:53:48;;;;;;;16.63;9.30;;;12.20;99.90;;;;;;5001136;28;209040;-74
2023/05/10 04:56:14;;;;;;;12.98;9.13;;;12.30;99.90;;;;;;5066145;28;20677;-75
2023/05/10 04:58:40;;;;;;;14.57;9.82;;;12.20;99.90;;;;;;4979252;28;218017;-75
2023/05/10 05:01:09;;;;;;;13.32;8.80;;;12.30;99.90;;;;;;5021796;28;20052;-75
2023/05/10 05:03:35;;;;;;;12.25;8.80;;;12.30;99.90;;;;;;4997902;28;204840;-76
2023/05/10 05:06:01;;;;;;;12.88;8.50;;;12.30;99.90;;;;;;5036490;28;20056;-76
2023/05/10 05:08:27;;;;;;;13.55;9.10;;;12.30;99.90;;;;;;5001739;28;210290;-76
2023/05/10 05:10:54;;;;;;;12.23;8.35;;;12.30;99.90;;;;;;5079345;28;20059;-76
2023/05/10 05:13:20;;;;;;;12.23;8.23;;;12.20;99.90;;;;;;5014663;28;213171;-74
2023/05/10 05:15:46;;;;;;;11.95;8.32;;;12.30;99.90;;;;;;5066932;28;20055;-75
2023/05/10 05:18:12;;;;;;;12.70;8.07;;;12.30;99.90;;;;;;5019995;28;209258;-74
2023/05/10 05:20:38;;;;;;;12.43;7.78;;;12.30;99.90;;;;;;5058775;28;20474;-75
2023/05/10 05:23:04;;;;;;;12.77;8.57;;;12.20;99.90;;;;;;5024465;28;209579;-75
2023/05/10 05:25:30;;;;;;;12.82;8.13;;;12.20;99.90;;;;;;5080396;28;20529;-74
2023/05/10 05:27:57;;;;;;;11.95;8.15;;;12.30;99.90;;;;;;5065636;28;209360;-74
2023/05/10 05:30:23;;;;;;;12.98;8.05;;;12.30;99.90;;;;;;5059762;28;77999;-74
2023/05/10 05:32:49;;;;;;;13.57;8.52;;;12.30;99.90;;;;;;5064561;28;20057;-76
2023/05/10 05:35:15;;;;;;;12.32;7.63;;;12.20;99.90;;;;;;4985723;28;207866;-75
2023/05/10 05:37:41;;;;;;;13.10;7.90;;;12.30;99.90;;;;;;5076331;28;20055;-74
2023/05/10 05:40:08;;;;;;;12.88;7.88;;;12.30;99.90;;;;;;5026822;28;208258;-75
2023/05/10 05:42:34;;;;;;;11.07;7.20;;;12.30;99.90;;;;;;5080946;28;20055;-75
2023/05/10 05:45:00;;;;;;;13.25;7.57;;;12.30;99.90;;;;;;5028440;28;226316;-75
2023/05/10 05:47:26;;;;;;;11.73;7.40;;;12.30;99.90;;;;;;5077084;28;20059;-74
2023/05/10 05:49:52;;;;;;;12.15;7.57;;;12.30;99.90;;;;;;5005568;28;204651;-75
2023/05/10 05:52:18;;;;;;;11.43;7.13;;;12.20;99.90;;;;;;5072197;28;20052;-75
2023/05/10 05:54:44;;;;;;;12.85;6.70;;;12.20;99.90;;;;;;4976702;28;205849;-74
2023/05/10 05:57:10;;;;;;;10.60;6.10;;;12.20;99.90;;;;;;5068256;28;20048;-74
2023/05/10 05:59:41;;;;;;;9.52;5.55;;;12.30;99.90;;;;;;4989652;28;243701;-75
2023/05/10 06:02:08;;;;;;;10.40;5.80;;;12.30;99.90;;;;;;5071444;28;20067;-75
2023/05/10 06:04:34;;;;;;;9.48;5.35;;;12.30;99.90;;;;;;4997398;28;209541;-74
2023/05/10 06:07:00;;;;;;;9.90;5.50;;;12.30;99.90;;;;;;5056546;28;20248;-72
2023/05/10 06:09:27;;;;;;;11.07;5.40;;;12.30;99.90;;;;;;4998756;28;210344;-73
2023/05/10 06:11:53;;;;;;;9.65;5.57;;;12.30;99.90;;;;;;5054702;28;20083;-73
2023/05/10 06:14:22;;;;;;;9.27;4.90;;;12.30;99.90;;;;;;4994804;28;210549;-72
2023/05/10 06:16:48;;;;;;;8.95;4.50;;;12.30;99.90;;;;;;5052431;28;20049;-73
2023/05/10 06:19:15;;;;;;;9.55;4.60;;;12.30;99.90;;;;;;5000942;28;215302;-74
2023/05/10 06:21:41;;;;;;;8.82;4.35;;;12.30;99.90;;;;;;5080517;28;20058;-73
2023/05/10 06:24:07;;;;;;;8.88;4.50;;;12.30;99.90;;;;;;5022939;28;212728;-73
2023/05/10 06:26:34;;;;;;;8.38;4.00;;;12.40;99.90;;;;;;5079331;28;20053;-74
2023/05/10 06:29:00;;;;;;;7.60;3.30;;;12.30;99.90;;;;;;5019783;28;210386;-74
2023/05/10 06:31:26;;;;;;;7.00;2.80;;;12.40;99.90;;;;;;5048500;28;20060;-74
2023/05/10 06:33:53;;;;;;;6.88;2.50;;;12.40;99.90;;;;;;5016797;28;207103;-75
2023/05/10 06:36:19;;;;;;;7.32;2.40;;;12.40;99.90;;;;;;5072919;28;20111;-75
2023/05/10 06:38:45;;;;;;;6.43;2.10;;;12.40;99.90;;;;;;5026993;28;205588;-74
2023/05/10 06:41:11;;;;;;;6.13;1.80;;;12.50;99.90;;;;;;5072945;28;20051;-74
2023/05/10 06:43:41;;;;;;;7.05;2.03;;;12.50;99.90;;;;;;5009142;28;208203;-73
2023/05/10 06:46:07;;;;;;;5.72;1.80;;;12.50;99.90;;;;;;5083548;28;20486;-74
2023/05/10 06:48:33;;;;;;;4.72;1.50;;;12.40;99.90;;;;;;5010841;28;209505;-73
2023/05/10 06:50:59;;;;;;;5.53;1.50;;;12.50;99.90;;;;;;5060293;28;20063;-74
2023/05/10 06:53:26;;;;;;;3.85;1.20;;;12.50;99.90;;;;;;5022581;28;203317;-72
2023/05/10 06:55:52;;;;;;;4.10;1.10;;;12.50;99.90;;;;;;5067085;28;20056;-73
2023/05/10 06:58:18;;;;;;;3.63;1.00;;;12.50;99.90;;;;;;5009437;28;210690;-72
2023/05/10 07:00:45;;;;;;;3.08;0.80;;;12.50;99.90;;;;;;5067670;28;20506;-75
2023/05/10 07:03:11;;;;;;;2.08;0.70;;;12.50;99.90;;;;;;5025004;28;227774;-72
2023/05/10 07:05:37;;;;;;;2.63;0.82;;;12.50;99.90;;;;;;5059043;28;20047;-73
2023/05/10 07:08:03;;;;;;;2.63;0.70;;;12.50;99.90;;;;;;5020845;28;221185;-71
2023/05/10 07:10:29;;;;;;;1.95;0.70;;;12.60;99.90;;;;;;5070318;28;20406;-73
2023/05/10 07:12:55;;;;;;;3.05;0.70;;;12.60;99.90;;;;;;5064372;28;208922;-73
2023/05/10 07:15:22;;;;;;;3.40;0.70;;;12.60;99.90;;;;;;5019770;28;208490;-73
2023/05/10 07:17:48;;;;;;;2.05;0.80;;;12.70;99.90;;;;;;5067169;28;20516;-70
2023/05/10 07:20:14;;;;;;;2.30;0.80;;;12.70;99.90;;;;;;5019449;28;214500;-71
2023/05/10 07:22:40;;;;;;;2.78;0.90;;;12.70;99.90;;;;;;5085451;28;20044;-70
2023/05/10 07:25:06;;;;;;;4.35;1.23;;;12.60;99.90;;;;;;5024290;28;214056;-72
2023/05/10 07:27:33;;;;;;;4.72;1.40;;;12.60;99.90;;;;;;5085281;28;20044;-73
2023/05/10 07:29:59;;;;;;;6.10;1.80;;;12.60;99.90;;;;;;5000634;28;211300;-72
2023/05/10 07:32:25;;;;;;;4.70;1.40;;;12.70;99.90;;;;;;5081826;28;20126;-72
2023/05/10 07:34:51;;;;;;;5.65;1.30;;;12.70;99.90;;;;;;5012070;28;210335;-73
2023/05/10 07:37:17;;;;;;;2.47;0.90;;;12.70;99.90;;;;;;5084991;28;20048;-72
2023/05/10 07:39:43;;;;;;;2.58;0.88;;;12.70;99.90;;;;;;5002390;28;210251;-72
2023/05/10 07:42:09;;;;;;;2.80;0.93;;;12.80;99.90;;;;;;5079902;28;20047;-75
2023/05/10 07:44:35;;;;;;;2.50;0.80;;;12.90;99.90;;;;;;5014348;28;210062;-73
2023/05/10 07:47:01;;;;;;;2.30;0.80;;;12.90;99.90;;;;;;5078989;28;20036;-73
2023/05/10 07:49:27;;;;;;;2.10;0.88;;;13.00;99.90;;;;;;5008528;28;200472;-73
2023/05/10 07:51:53;;;;;;;3.22;0.90;;;13.00;99.90;;;;;;5075722;28;20048;-74
2023/05/10 07:54:19;;;;;;;3.25;0.90;;;12.90;99.90;;;;;;5030412;28;193750;-72
2023/05/10 07:56:46;;;;;;;3.55;1.08;;;12.90;99.90;;;;;;5078303;28;20048;-73
2023/05/10 07:59:16;;;;;;;2.95;0.90;;;12.90;99.90;;;;;;5008273;28;217520;-73
2023/05/10 08:01:43;;;;;;;5.30;1.30;;;12.90;99.90;;;;;;5079240;28;20052;-73
2023/05/10 08:04:09;;;;;;;5.25;1.30;;;12.80;99.90;;;;;;5006983;28;208097;-73
2023/05/10 08:06:35;;;;;;;5.78;1.50;;;12.90;99.90;;;;;;5077874;28;20055;-73
2023/05/10 08:09:02;;;;;;;6.35;1.77;;;12.90;99.90;;;;;;5017761;28;210161;-73
2023/05/10 08:11:28;;;;;;;6.55;1.90;;;13.00;99.90;;;;;;5045123;28;20422;-73
2023/05/10 08:13:54;;;;;;;6.70;2.20;;;13.10;99.90;;;;;;5014376;28;236172;-73
2023/05/10 08:16:20;;;;;;;7.85;2.33;;;13.10;99.90;;;;;;5076488;28;20052;-74
2023/05/10 08:18:47;;;;;;;7.90;1.90;;;13.10;99.90;;;;;;5030031;28;210093;-72
2023/05/10 08:21:14;;;;;;;7.10;2.45;;;13.10;99.90;;;;;;5096109;28;20055;-73
2023/05/10 08:23:40;;;;;;;6.63;2.40;;;13.10;99.90;;;;;;5024865;28;221798;-73
2023/05/10 08:26:06;;;;;;;7.32;2.80;;;13.00;99.90;;;;;;5054002;28;21611;-72
2023/05/10 08:28:32;;;;;;;7.00;3.13;;;13.00;99.90;;;;;;5023568;28;221787;-72
2023/05/10 08:30:58;;;;;;;7.28;2.65;;;13.00;99.90;;;;;;5071734;28;20052;-72
2023/05/10 08:33:25;;;;;;;8.32;2.90;;;12.90;99.90;;;;;;5037568;28;210977;-72
2023/05/10 08:35:51;;;;;;;7.43;3.10;;;12.90;99.90;;;;;;5097974;28;20052;-71
2023/05/10 08:38:18;;;;;;;7.22;3.03;;;12.90;99.90;;;;;;5030573;28;232397;-71
2023/05/10 08:40:45;;;;;;;7.47;2.92;;;12.90;99.90;;;;;;5074665;28;20430;-72
2023/05/10 08:43:15;;;;;;;8.30;3.20;;;13.00;99.90;;;;;;5027266;28;209520;-70
2023/05/10 08:45:47;;;;;;;9.65;2.92;;;12.90;99.90;;;;;;5057938;28;20058;-71
2023/05/10 08:48:14;;;;;;;7.40;2.80;;;13.00;99.90;;;;;;5019195;28;213426;-71
2023/05/10 08:50:41;;;;;;;7.47;2.97;;;13.10;99.90;;;;;;5067656;28;20071;-71
2023/05/10 08:53:12;;;;;;;7.47;2.75;;;13.10;99.90;;;;;;5020843;28;208068;-73
2023/05/10 08:55:39;;;;;;;8.07;3.00;;;13.10;99.90;;;;;;5080746;28;20043;-74
2023/05/10 08:58:06;;;;;;;7.55;2.70;;;13.10;99.90;;;;;;5012343;28;208213;-73
2023/05/10 09:00:33;;;;;;;7.68;2.90;;;13.20;99.90;;;;;;5057895;28;20570;-72
2023/05/10 09:03:00;;;;;;;8.85;3.08;;;13.20;99.90;;;;;;5026602;28;209188;-71
2023/05/10 09:05:26;;;;;;;9.88;4.00;;;13.30;99.90;;;;;;5033481;28;20608;-72
2023/05/10 09:07:52;;;;;;;8.65;4.05;;;13.20;99.90;;;;;;5054881;28;20060;-73
2023/05/10 09:10:20;;;;;;;9.02;4.15;;;13.30;99.90;;;;;;4980614;28;150973;-73
2023/05/10 09:12:47;;;;;;;8.63;4.18;;;13.30;99.90;;;;;;5057550;28;20052;-73
2023/05/10 09:15:15;;;;;;;8.85;4.40;;;13.30;99.90;;;;;;5011301;28;208682;-73
2023/05/10 09:17:43;;;;;;;9.32;4.15;;;13.30;99.90;;;;;;5071001;28;20053;-73
2023/05/10 09:20:10;;;;;;;9.57;4.50;;;13.30;99.90;;;;;;5017592;28;207642;-73
2023/05/10 09:22:36;;;;;;;10.23;4.80;;;13.30;99.90;;;;;;5075700;28;20124;-74
2023/05/10 09:25:09;;;;;;;9.57;5.35;;;13.40;99.90;;;;;;5027725;28;206775;-73
2023/05/10 09:27:36;;;;;;;11.13;5.40;;;13.30;99.90;;;;;;5079271;28;20043;-73
2023/05/10 09:30:07;;;;;;;10.13;5.28;;;13.30;99.90;;;;;;5007486;28;219624;-73
2023/05/10 09:32:43;;;;;;;11.80;5.75;;;13.30;99.90;;;;;;5087700;28;20056;-73
2023/05/10 09:35:17;;;;;;;11.25;5.57;;;13.40;99.90;;;;;;5026810;28;210015;-71
2023/05/10 09:37:46;;;;;;;11.13;5.90;;;13.50;99.90;;;;;;5087300;28;20056;-72
2023/05/10 09:40:15;;;;;;;10.55;5.20;;;13.70;99.90;;;;;;5021567;28;207836;-73
2023/05/10 09:43:02;;;;;;;10.18;5.38;;;13.80;99.90;;;;;;5081263;28;20056;-72
2023/05/10 09:45:30;;;;;;;10.20;4.60;;;13.80;99.90;;;;;;5032671;28;43958;-72
2023/05/10 09:47:58;;;;;;;9.50;5.15;;;13.70;99.90;;;;;;5064471;28;209788;-71
2023/05/10 09:50:25;;;;;;;10.10;5.53;;;13.70;99.90;;;;;;5015953;28;207558;-73
2023/05/10 09:52:52;;;;;;;10.88;5.60;;;13.70;99.90;;;;;;5085175;28;20063;-71
2023/05/10 09:55:24;;;;;;;10.60;5.60;;;13.80;99.90;;;;;;5009131;28;65738;-72
2023/05/10 09:58:00;;;;;;;11.40;4.82;;;13.80;99.90;;;;;;5081801;28;20052;-72
2023/05/10 10:00:27;;;;;;;12.13;5.88;;;13.80;99.90;;;;;;5014485;28;20040;-72
2023/05/10 10:02:58;;;;;;;11.07;5.22;;;13.80;99.90;;;;;;5082712;28;20078;-71
2023/05/10 10:05:32;;;;;;;12.30;6.18;;;13.80;99.90;;;;;;5025831;28;96239;-72
2023/05/10 10:07:58;;;;;;;11.70;5.82;;;14.00;99.90;;;;;;5044838;28;212346;-72
2023/05/10 10:10:25;;;;;;;10.45;5.43;;;14.10;99.90;;;;;;5059226;28;267645;-71
2023/05/10 10:12:52;;;;;;;9.25;5.22;;;14.20;99.90;;;;;;5081652;28;20059;-73
2023/05/10 10:15:20;;;;;;;10.52;5.13;;;14.40;99.90;;;;;;5019547;28;207567;-72
2023/05/10 10:17:47;;;;;;;11.43;6.18;;;14.30;99.90;;;;;;5078079;28;20052;-72
2023/05/10 10:20:14;;;;;;;11.35;5.00;;;14.50;99.90;;;;;;5007616;28;207322;-72
2023/05/10 10:22:41;;;;;;;12.57;5.35;;;14.50;99.90;;;;;;5079700;28;20049;-71
2023/05/10 10:25:08;;;;;;;10.73;5.43;;;14.50;99.90;;;;;;5014818;28;206616;-72
2023/05/10 10:28:06;;;;;;;11.68;4.75;;;14.60;99.90;;;;;;5075684;28;20059;-71
2023/05/10 10:30:45;;;;;;;10.00;5.13;;;14.70;99.90;;;;;;5025467;28;50362;-71
2023/05/10 10:33:47;;;;;;;11.23;5.50;;;14.60;99.90;;;;;;5002618;28;208937;-70
2023/05/10 10:36:13;;;;;;;10.27;5.30;;;14.80;99.90;;;;;;5086042;28;20256;-71
2023/05/10 10:38:48;;;;;;;11.30;5.50;;;14.80;99.90;;;;;;5015715;28;176614;-70
2023/05/10 10:41:34;;;;;;;10.65;5.35;;;14.70;99.90;;;;;;5054003;28;20070;-70
2023/05/10 10:44:22;;;;;;;10.00;5.45;;;14.70;99.90;;;;;;5009354;28;207462;-70
2023/05/10 10:47:08;;;;;;;13.15;5.60;;;14.70;99.90;;;;;;5069724;28;20048;-70
2023/05/10 10:49:49;;;;;;;10.95;5.22;;;14.70;99.90;;;;;;5012343;28;209108;-70
2023/05/10 10:52:32;;;;;;;11.15;5.60;;;14.80;99.90;;;;;;5073034;28;20053;-70
2023/05/10 10:55:08;;;;;;;11.23;5.38;;;14.80;99.90;;;;;;5020636;28;208104;-70
2023/05/10 10:57:43;;;;;;;10.35;5.40;;;14.90;99.90;;;;;;5075233;28;20056;-69
2023/05/10 11:00:30;;;;;;;12.23;5.63;;;14.90;99.90;;;;;;4990567;28;214017;-69
2023/05/10 11:03:06;;;;;;;9.82;5.60;;;15.00;99.90;;;;;;5052882;28;206966;-71
2023/05/10 11:05:36;;;;;;;10.60;5.80;;;15.00;99.90;;;;;;5010887;28;20040;-70
2023/05/10 11:08:13;;;;;;;10.93;6.07;;;15.00;99.90;;;;;;5022948;28;208123;-70
2023/05/10 11:10:48;;;;;;;10.27;5.30;;;15.10;99.90;;;;;;5078851;28;20413;-71
2023/05/10 11:13:14;;;;;;;10.53;5.50;;;15.20;99.90;;;;;;5028412;28;208136;-71
2023/05/10 11:15:48;;;;;;;12.05;5.78;;;15.20;99.90;;;;;;5052017;28;20127;-72
2023/05/10 11:18:17;;;;;;;10.50;5.55;;;15.30;99.90;;;;;;5025880;28;208096;-70
2023/05/10 11:20:46;;;;;;;12.05;5.30;;;15.40;99.90;;;;;;5074720;28;20048;-71
2023/05/10 11:23:15;;;;;;;9.95;5.13;;;15.40;99.90;;;;;;5010504;28;213945;-71
2023/05/10 11:25:43;;;;;;;9.88;5.15;;;15.30;99.90;;;;;;5064942;28;20052;-71
2023/05/10 11:28:11;;;;;;;9.73;4.78;;;15.30;99.90;;;;;;5023609;28;207819;-70
2023/05/10 11:30:41;;;;;;;11.10;5.43;;;15.20;99.90;;;;;;5062220;28;20399;-70
2023/05/10 11:33:08;;;;;;;9.90;5.25;;;15.20;99.90;;;;;;5020018;28;212849;-72
2023/05/10 11:35:39;;;;;;;10.15;5.00;;;15.10;99.90;;;;;;5064872;28;20083;-72
2023/05/10 11:38:09;;;;;;;9.73;4.72;;;15.20;99.90;;;;;;5021721;28;212034;-71
2023/05/10 11:40:35;;;;;;;10.27;4.68;;;15.00;99.90;;;;;;5047898;28;20052;-71
2023/05/10 11:43:02;;;;;;;10.82;5.20;;;14.90;99.90;;;;;;5020235;28;213565;-71
2023/05/10 11:45:31;;;;;;;11.35;5.20;;;14.90;99.90;;;;;;5043999;28;20049;-71
2023/05/10 11:47:58;;;;;;;12.35;5.28;;;14.70;99.90;;;;;;5032499;28;216760;-71
2023/05/10 11:50:28;;;;;;;11.40;5.00;;;14.60;99.90;;;;;;5045218;27;206567;-72
2023/05/10 11:52:56;;;;;;;9.88;5.43;;;14.60;99.90;;;;;;5064242;28;223939;-71
2023/05/10 11:55:24;;;;;;;10.18;5.60;;;14.50;99.90;;;;;;5005721;28;144068;-71
2023/05/10 11:57:53;;;;;;;12.25;5.90;;;14.50;99.90;;;;;;5081688;28;20498;-71
2023/05/10 12:00:19;;;;;;;11.77;6.18;;;14.50;99.90;;;;;;4974358;28;411576;-71
2023/05/10 12:02:46;;;;;;;11.48;6.22;;;14.60;99.90;;;;;;5074093;28;20660;-71
2023/05/10 12:05:12;;;;;;;11.80;6.50;;;14.60;99.90;;;;;;4998566;28;206892;-70
2023/05/10 12:07:38;;;;;;;12.07;6.30;;;14.60;99.90;;;;;;5076948;28;20062;-70
2023/05/10 12:10:17;;;;;;;11.02;6.30;;;14.70;99.90;;;;;;4996833;28;181435;-70
2023/05/10 12:12:45;;;;;;;11.30;6.75;;;14.70;99.90;;;;;;5082844;28;20056;-70
2023/05/10 12:15:22;;;;;;;13.35;6.93;;;14.70;99.90;;;;;;5011523;28;207717;-70
2023/05/10 12:17:49;;;;;;;15.32;6.20;;;14.70;99.90;;;;;;5069363;28;20059;-70
2023/05/10 12:20:18;;;;;;;12.15;6.60;;;14.70;99.90;;;;;;5015623;28;206762;-70
2023/05/10 12:22:53;;;;;;;11.88;6.82;;;14.80;99.90;;;;;;5074832;28;20048;-69
2023/05/10 12:25:21;;;;;;;12.57;6.50;;;14.90;99.90;;;;;;5012994;28;262761;-70
2023/05/10 12:27:55;;;;;;;12.18;6.50;;;14.90;99.90;;;;;;5071272;28;20399;-72
2023/05/10 12:30:26;;;;;;;12.82;6.97;;;14.90;99.90;;;;;;5009261;28;150107;-70
2023/05/10 12:32:53;;;;;;;10.95;6.57;;;14.90;99.90;;;;;;5077479;27;20059;-70
2023/05/10 12:35:23;;;;;;;11.73;6.05;;;14.90;99.90;;;;;;4998670;28;206969;-70
2023/05/10 12:37:51;;;;;;;12.18;6.82;;;14.90;99.90;;;;;;5073656;28;20156;-69
2023/05/10 12:40:17;;;;;;;14.45;6.82;;;15.00;99.90;;;;;;5010193;28;205837;-69